createdAt,value
2022-12-25T00:01:43.966Z,100015.84
2022-12-25T00:04:34.953Z,100021.22
2022-12-25T00:07:20.625Z,100014.78
2022-12-25T00:10:31.840Z,100032.88
2022-12-25T00:13:07.886Z,100038.09
2022-12-25T00:19:04.667Z,100030.22
2022-12-25T00:21:41.134Z,100028.25
2022-12-25T00:24:16.034Z,100026.56
2022-12-25T00:27:02.309Z,100032.56
2022-12-25T00:29:49.872Z,100029.94
2022-12-25T00:32:27.880Z,100019.69
2022-12-25T00:35:50.357Z,100020.53
2022-12-25T00:38:25.974Z,100013.94
2022-12-25T00:41:11.908Z,100016.16
2022-12-25T00:43:42.173Z,100028.13
2022-12-25T00:46:31.477Z,100019.69
2022-12-25T00:49:09.696Z,100013.34
2022-12-25T00:52:12.800Z,100012.53
2022-12-25T00:55:05.992Z,100020.84
2022-12-25T00:57:56.111Z,100011.19
2022-12-25T01:00:42.519Z,100018.66
2022-12-25T01:04:25.165Z,100014.47
2022-12-25T01:07:17.207Z,99997.66
2022-12-25T01:10:12.000Z,100002.53
2022-12-25T01:13:10.757Z,100003.50
2022-12-25T01:16:25.855Z,99995.53
2022-12-25T01:19:08.410Z,99986.66
2022-12-25T01:22:28.350Z,99986.78
2022-12-25T01:28:33.319Z,99983.75
2022-12-25T01:31:20.920Z,99980.09
2022-12-25T01:34:49.268Z,99980.25
2022-12-25T01:37:46.003Z,99976.41
2022-12-25T01:40:42.141Z,99969.75
2022-12-25T01:43:26.408Z,99973.97
2022-12-25T01:46:30.572Z,99960.53
2022-12-25T01:49:23.381Z,99955.78
2022-12-25T01:55:34.531Z,99950.56
2022-12-25T01:58:44.907Z,99957.63
2022-12-25T02:01:45.118Z,99954.41
2022-12-25T02:04:57.498Z,99951.94
2022-12-25T02:11:11.901Z,99961.75
2022-12-25T02:14:20.022Z,99957.16
2022-12-25T02:17:11.567Z,99960.38
2022-12-25T02:20:25.526Z,99948.28
2022-12-25T02:23:25.337Z,99944.63
2022-12-25T02:26:30.663Z,99944.53
2022-12-25T02:29:48.187Z,99933.84
2022-12-25T02:32:51.252Z,99937.91
2022-12-25T02:35:25.177Z,99933.59
2022-12-25T02:37:57.529Z,99935.28
2022-12-25T02:40:53.183Z,99943.19
2022-12-25T02:44:04.671Z,99942.09
2022-12-25T02:47:22.368Z,99942.72
2022-12-25T02:50:40.401Z,99937.56
2022-12-25T02:53:31.179Z,99932.22
2022-12-25T02:56:27.415Z,99919.09
2022-12-25T02:59:18.187Z,99926.66
2022-12-25T03:02:17.771Z,99933.56
2022-12-25T03:05:17.786Z,99929.50
2022-12-25T03:07:54.071Z,99915.88
2022-12-25T03:14:19.272Z,99917.56
2022-12-25T03:17:08.873Z,99921.69
2022-12-25T03:20:10.692Z,99910.22
2022-12-25T03:23:05.461Z,99920.72
2022-12-25T03:26:07.259Z,99919.31
2022-12-25T03:28:47.093Z,99923.38
2022-12-25T03:31:24.922Z,99928.94
2022-12-25T03:34:36.381Z,99911.44
2022-12-25T03:38:03.910Z,99896.78
2022-12-25T03:41:21.987Z,99904.28
2022-12-25T03:44:38.850Z,99893.09
2022-12-25T03:47:59.669Z,99890.63
2022-12-25T03:51:04.148Z,99889.88
2022-12-25T03:53:58.559Z,99883.69
2022-12-25T03:56:51.167Z,99887.97
2022-12-25T03:59:42.350Z,99877.44
2022-12-25T04:02:34.629Z,99885.31
2022-12-25T04:06:17.469Z,99880.03
2022-12-25T04:20:23.584Z,99863.41
2022-12-25T04:24:35.251Z,99860.44
2022-12-25T04:31:12.067Z,99849.06
2022-12-25T10:43:59.344Z,99924.84
2022-12-25T10:47:31.899Z,99908.25
2022-12-25T10:50:33.976Z,99908.03
2022-12-25T10:54:25.828Z,99925.22
2022-12-25T10:57:26.424Z,99936.38
2022-12-25T11:04:01.530Z,99917.94
2022-12-25T11:06:33.471Z,99914.28
2022-12-25T11:09:03.709Z,99906.22
2022-12-25T11:11:32.303Z,99916.28
2022-12-25T11:14:03.338Z,99900.28
2022-12-25T11:16:33.990Z,99900.19
2022-12-25T11:19:04.767Z,99898.09
2022-12-25T11:21:35.103Z,99910.19
2022-12-25T11:24:05.940Z,99893.50
2022-12-25T11:26:47.902Z,99900.53
2022-12-25T11:29:25.886Z,99893.75
2022-12-25T11:31:57.352Z,99889.50
2022-12-25T11:34:32.385Z,99898.38
2022-12-25T11:37:02.970Z,99898.59
2022-12-25T11:39:32.945Z,99903.72
2022-12-25T11:42:06.971Z,99901.03
2022-12-25T11:44:42.693Z,99897.41
2022-12-25T11:47:18.693Z,99887.53
2022-12-25T11:49:58.742Z,99877.13
2022-12-25T11:52:33.107Z,99889.06
2022-12-25T11:55:06.661Z,99884.53
2022-12-25T11:57:38.054Z,99895.34
2022-12-25T12:00:09.656Z,99898.94
2022-12-25T12:02:45.044Z,99894.53
2022-12-25T12:05:21.446Z,99894.81
2022-12-25T12:07:58.632Z,99889.78
2022-12-25T12:10:38.972Z,99887.28
2022-12-25T12:13:21.705Z,99892.47
2022-12-25T12:15:51.978Z,99886.50
2022-12-25T12:18:23.370Z,99881.25
2022-12-25T12:21:10.154Z,99878.13
2022-12-25T12:23:51.695Z,99883.31
2022-12-25T12:26:21.782Z,99872.94
2022-12-25T12:28:52.573Z,99883.22
2022-12-25T12:31:21.083Z,99884.84
2022-12-25T12:33:54.587Z,99890.22
2022-12-25T12:36:35.527Z,99898.97
2022-12-25T12:39:06.389Z,99882.41
2022-12-25T12:41:46.171Z,99891.31
2022-12-25T12:44:18.165Z,99893.34
2022-12-25T12:46:55.696Z,99893.03
2022-12-25T12:49:28.051Z,99892.34
2022-12-25T12:52:08.370Z,99887.25
2022-12-25T12:54:54.733Z,99890.00
2022-12-25T12:57:27.126Z,99887.25
2022-12-25T12:59:55.498Z,99887.81
2022-12-25T13:02:52.639Z,99889.44
2022-12-25T13:05:34.441Z,99891.09
2022-12-25T13:08:18.947Z,99904.94
2022-12-25T13:10:50.853Z,99889.69
2022-12-25T13:13:24.624Z,99900.69
2022-12-25T13:15:53.902Z,99894.72
2022-12-25T13:18:22.363Z,99896.06
2022-12-25T13:20:56.432Z,99899.84
2022-12-25T13:23:32.834Z,99896.56
2022-12-25T13:26:03.570Z,99898.84
2022-12-25T13:28:33.709Z,99903.25
2022-12-25T13:31:08.372Z,99911.56
2022-12-25T13:33:36.994Z,99913.59
2022-12-25T13:36:06.939Z,99911.44
2022-12-25T13:38:36.966Z,99910.19
2022-12-25T13:41:19.336Z,99910.19
2022-12-25T13:43:49.882Z,99915.78
2022-12-25T13:46:26.399Z,99925.50
2022-12-25T13:49:00.026Z,99922.47
2022-12-25T13:51:30.059Z,99932.03
2022-12-25T13:54:07.935Z,99931.88
2022-12-25T13:56:36.591Z,99926.97
2022-12-25T13:59:20.317Z,99926.22
2022-12-25T14:01:51.291Z,99926.22
2022-12-25T14:04:29.099Z,99934.06
2022-12-25T14:06:57.598Z,99940.00
2022-12-25T14:09:27.511Z,99938.56
2022-12-25T14:11:58.020Z,99937.56
2022-12-25T14:14:27.612Z,99940.44
2022-12-25T14:17:00.411Z,99942.09
2022-12-25T14:19:30.539Z,99948.28
2022-12-25T14:22:04.025Z,99949.72
2022-12-25T14:24:36.262Z,99949.50
2022-12-25T14:27:07.122Z,99952.94
2022-12-25T14:29:39.721Z,99950.22
2022-12-25T14:32:12.374Z,99951.66
2022-12-25T14:34:40.737Z,99948.91
2022-12-25T14:37:17.330Z,99953.97
2022-12-25T14:39:55.079Z,99952.50
2022-12-25T14:42:25.154Z,99953.19
2022-12-25T14:45:05.128Z,99957.53
2022-12-25T14:47:40.441Z,99954.78
2022-12-25T14:50:16.743Z,99955.56
2022-12-25T14:52:46.817Z,99970.38
2022-12-25T14:55:22.947Z,99969.63
2022-12-25T14:57:54.493Z,99961.06
2022-12-25T15:00:26.115Z,99973.22
2022-12-25T15:02:57.276Z,99967.41
2022-12-25T15:05:34.734Z,99969.94
2022-12-25T15:08:21.154Z,99963.81
2022-12-25T15:11:01.738Z,99965.75
2022-12-25T15:13:32.468Z,99969.31
2022-12-25T15:16:05.196Z,99972.91
2022-12-25T15:18:38.876Z,99977.13
2022-12-25T15:21:08.036Z,99975.59
2022-12-25T15:23:36.451Z,99980.09
2022-12-25T15:26:06.544Z,99985.28
2022-12-25T15:28:34.917Z,99990.50
2022-12-25T15:31:03.401Z,99998.44
2022-12-25T15:33:33.406Z,99993.16
2022-12-25T15:36:01.889Z,100005.41
2022-12-25T15:38:36.575Z,100004.56
2022-12-25T15:41:06.882Z,100005.31
2022-12-25T15:43:42.400Z,99993.47
2022-12-25T15:46:11.547Z,100004.91
2022-12-25T15:48:39.913Z,100000.25
2022-12-25T15:51:08.611Z,100009.13
2022-12-25T15:53:36.950Z,100005.75
2022-12-25T15:56:07.252Z,99999.84
2022-12-25T15:58:35.686Z,100005.16
2022-12-25T16:01:04.073Z,100009.50
2022-12-25T16:03:32.758Z,100013.84
2022-12-25T16:06:01.284Z,100018.19
2022-12-25T16:08:29.620Z,100014.84
2022-12-25T16:10:57.980Z,100011.41
2022-12-25T16:13:27.783Z,100009.78
2022-12-25T16:15:56.286Z,100018.69
2022-12-25T16:18:25.172Z,100018.09
2022-12-25T16:20:54.252Z,100011.16
2022-12-25T16:23:23.213Z,100013.97
2022-12-25T16:26:04.358Z,100013.19
2022-12-25T16:28:45.352Z,100009.81
2022-12-25T16:31:19.116Z,100009.22
2022-12-25T16:37:47.185Z,100014.53
2022-12-25T16:40:23.255Z,100020.59
2022-12-25T16:47:21.847Z,100022.34
2022-12-25T16:50:26.029Z,100026.97
2022-12-25T16:53:56.535Z,100033.34
2022-12-25T17:05:36.287Z,100058.94
2022-12-25T17:09:06.939Z,100059.34
2022-12-25T17:12:43.575Z,100074.25
2022-12-25T17:16:21.061Z,100071.94
2022-12-25T17:23:49.811Z,100076.84
2022-12-25T17:55:27.286Z,100104.63
2022-12-25T18:27:34.665Z,100143.75
2022-12-25T20:39:18.551Z,100222.88
2022-12-25T20:55:42.050Z,100232.03
2022-12-25T21:04:07.894Z,100265.69
2022-12-25T21:07:32.222Z,100271.47
2022-12-25T21:10:54.615Z,100274.66
2022-12-25T21:15:37.415Z,100281.50
2022-12-25T21:24:27.357Z,100303.84
2022-12-25T21:35:47.710Z,100322.91
2022-12-25T22:16:26.255Z,100321.75
2022-12-25T22:19:13.769Z,100337.31
2022-12-25T22:21:42.634Z,100341.59
2022-12-25T22:24:11.529Z,100332.13
2022-12-25T22:26:44.342Z,100333.81
2022-12-25T22:29:13.257Z,100335.69
2022-12-25T22:31:46.636Z,100326.28
2022-12-25T22:34:16.987Z,100331.47
2022-12-25T22:36:45.602Z,100335.00
2022-12-25T22:39:14.175Z,100329.91
2022-12-25T22:41:44.238Z,100333.34
2022-12-25T22:44:17.556Z,100339.50
2022-12-25T22:46:46.560Z,100346.44
2022-12-25T22:49:16.131Z,100348.31
2022-12-25T22:51:44.683Z,100354.28
2022-12-25T22:54:14.580Z,100362.06
2022-12-25T22:56:46.662Z,100357.72
2022-12-25T22:59:17.009Z,100361.28
2022-12-25T23:01:46.363Z,100362.06
2022-12-25T23:04:14.830Z,100369.84
2022-12-25T23:06:44.325Z,100371.53
2022-12-25T23:09:22.115Z,100367.19
2022-12-25T23:11:54.183Z,100365.25
2022-12-25T23:14:39.799Z,100374.56
2022-12-25T23:17:31.092Z,100367.56
2022-12-25T23:20:17.671Z,100370.91
2022-12-25T23:23:04.023Z,100369.84
2022-12-25T23:25:50.133Z,100381.00
2022-12-25T23:28:40.379Z,100376.91
2022-12-25T23:31:09.590Z,100389.75
2022-12-25T23:33:38.732Z,100392.28
2022-12-25T23:36:07.857Z,100396.63
2022-12-25T23:38:36.220Z,100404.34
2022-12-25T23:41:04.710Z,100415.84
2022-12-25T23:43:34.497Z,100419.31
2022-12-25T23:46:03.404Z,100415.09
2022-12-25T23:48:31.876Z,100420.47
2022-12-25T23:51:04.524Z,100419.72
2022-12-25T23:53:33.410Z,100414.66
2022-12-25T23:56:02.400Z,100417.41
2022-12-25T23:58:31.730Z,100411.59
